createdAt,value
2019-03-22T00:00:39.908Z,0.00
2019-03-22T00:01:39.919Z,0.00
2019-03-22T00:02:39.895Z,0.00
2019-03-22T00:03:39.897Z,0.00
2019-03-22T00:04:39.868Z,0.00
2019-03-22T00:05:39.845Z,0.00
2019-03-22T00:06:39.860Z,0.00
2019-03-22T00:07:39.857Z,0.00
2019-03-22T00:08:39.872Z,0.00
2019-03-22T00:09:39.809Z,0.00
2019-03-22T00:10:39.826Z,0.00
2019-03-22T00:11:39.799Z,0.00
2019-03-22T00:12:39.795Z,0.00
2019-03-22T00:13:39.786Z,0.00
2019-03-22T00:14:39.746Z,0.00
2019-03-22T00:15:39.733Z,0.00
2019-03-22T00:16:39.718Z,0.00
2019-03-22T00:17:39.712Z,0.00
2019-03-22T00:18:39.725Z,0.00
2019-03-22T00:19:39.729Z,0.00
2019-03-22T00:20:39.720Z,0.00
2019-03-22T00:21:39.688Z,0.00
2019-03-22T00:22:39.671Z,0.00
2019-03-22T00:23:39.647Z,0.00
2019-03-22T00:24:39.660Z,0.00
2019-03-22T00:25:39.623Z,0.00
2019-03-22T00:26:39.614Z,0.00
2019-03-22T00:27:39.623Z,0.00
2019-03-22T00:28:39.606Z,0.00
2019-03-22T00:29:39.601Z,0.00
2019-03-22T00:30:39.580Z,0.00
2019-03-22T00:31:39.598Z,0.00
2019-03-22T00:32:39.556Z,0.00
2019-03-22T00:33:39.545Z,0.00
2019-03-22T00:34:39.554Z,0.00
2019-03-22T00:35:39.538Z,0.00
2019-03-22T00:36:39.505Z,0.00
2019-03-22T00:37:39.499Z,0.00
2019-03-22T00:38:39.505Z,0.00
2019-03-22T00:39:39.494Z,0.00
2019-03-22T00:40:39.463Z,0.00
2019-03-22T00:41:39.459Z,0.00
2019-03-22T00:42:39.433Z,0.00
2019-03-22T00:43:39.436Z,0.00
2019-03-22T00:44:39.448Z,0.00
2019-03-22T00:45:39.408Z,0.00
2019-03-22T00:46:39.391Z,0.00
2019-03-22T00:47:39.451Z,0.00
2019-03-22T00:48:39.370Z,0.00
2019-03-22T00:49:39.390Z,0.00
2019-03-22T00:50:39.368Z,0.00
2019-03-22T00:51:39.360Z,0.00
2019-03-22T00:52:39.348Z,0.00
2019-03-22T00:53:40.300Z,0.00
2019-03-22T00:54:39.331Z,0.00
2019-03-22T00:55:39.294Z,0.00
2019-03-22T00:56:39.292Z,0.00
2019-03-22T00:57:39.277Z,0.00
2019-03-22T00:58:39.293Z,0.00
2019-03-22T00:59:39.297Z,0.00
2019-03-22T01:00:39.253Z,0.00
2019-03-22T01:01:39.245Z,0.00
2019-03-22T01:02:39.225Z,0.00
2019-03-22T01:04:58.235Z,0.00
2019-03-22T01:05:59.201Z,0.00
2019-03-22T01:06:59.188Z,0.00
2019-03-22T01:07:59.231Z,0.00
2019-03-22T01:08:59.161Z,0.00
2019-03-22T01:09:59.169Z,0.00
2019-03-22T01:10:59.149Z,0.00
2019-03-22T01:11:59.140Z,0.00
2019-03-22T01:12:59.136Z,0.00
2019-03-22T01:13:59.100Z,0.00
2019-03-22T01:14:59.122Z,0.00
2019-03-22T01:15:59.082Z,0.00
2019-03-22T01:16:59.069Z,0.00
2019-03-22T01:17:59.060Z,0.00
2019-03-22T01:18:59.055Z,0.00
2019-03-22T01:19:59.063Z,0.00
2019-03-22T01:20:59.041Z,0.00
2019-03-22T01:21:59.024Z,0.00
2019-03-22T01:22:59.004Z,0.00
2019-03-22T01:24:00.063Z,0.00
2019-03-22T01:24:59.013Z,0.00
2019-03-22T01:25:58.968Z,0.00
2019-03-22T01:26:58.999Z,0.00
2019-03-22T01:27:58.959Z,0.00
2019-03-22T01:28:58.943Z,0.00
2019-03-22T01:29:58.958Z,0.00
2019-03-22T01:30:58.925Z,0.00
2019-03-22T01:31:58.915Z,0.00
2019-03-22T01:32:58.898Z,0.00
2019-03-22T01:33:58.887Z,0.00
2019-03-22T01:34:58.904Z,0.00
2019-03-22T01:35:58.866Z,0.00
2019-03-22T01:36:58.857Z,0.00
2019-03-22T01:37:58.842Z,0.00
2019-03-22T01:38:58.839Z,0.00
2019-03-22T01:39:58.840Z,0.00
2019-03-22T01:40:58.831Z,0.00
2019-03-22T01:41:58.795Z,0.00
2019-03-22T01:42:58.798Z,0.00
2019-03-22T01:43:58.782Z,0.00
2019-03-22T01:44:58.781Z,0.00
2019-03-22T01:45:58.787Z,0.00
2019-03-22T01:46:58.737Z,0.00
2019-03-22T01:47:58.739Z,0.00
2019-03-22T01:48:58.746Z,0.00
2019-03-22T01:49:58.739Z,0.00
2019-03-22T01:50:58.715Z,0.00
2019-03-22T01:51:58.701Z,0.00
2019-03-22T01:52:58.847Z,0.00
2019-03-22T01:53:58.673Z,0.00
2019-03-22T01:54:58.694Z,0.00
2019-03-22T01:55:58.659Z,0.00
2019-03-22T01:56:58.639Z,0.00
2019-03-22T01:57:58.625Z,0.00
2019-03-22T01:58:58.622Z,0.00
2019-03-22T01:59:58.622Z,0.00
2019-03-22T02:00:58.610Z,0.00
2019-03-22T02:01:58.583Z,0.00
2019-03-22T02:02:58.575Z,0.00
2019-03-22T02:03:58.553Z,0.00
2019-03-22T02:04:58.607Z,0.00
2019-03-22T02:05:58.539Z,0.00
2019-03-22T02:06:58.536Z,0.00
2019-03-22T02:07:58.518Z,0.00
2019-03-22T02:08:58.501Z,0.00
2019-03-22T02:09:58.516Z,0.00
2019-03-22T02:10:58.503Z,0.00
2019-03-22T02:11:58.477Z,0.00
2019-03-22T02:12:58.463Z,0.00
2019-03-22T02:13:58.490Z,0.00
2019-03-22T02:14:58.473Z,0.00
2019-03-22T02:15:58.424Z,0.00
2019-03-22T02:16:58.408Z,0.00
2019-03-22T02:17:58.426Z,0.00
2019-03-22T02:18:58.397Z,0.00
2019-03-22T02:19:58.400Z,0.00
2019-03-22T02:20:58.368Z,0.00
2019-03-22T02:21:58.370Z,0.00
2019-03-22T02:22:58.351Z,0.00
2019-03-22T02:23:58.331Z,0.00
2019-03-22T02:24:58.348Z,0.00
2019-03-22T02:25:58.308Z,0.00
2019-03-22T02:26:58.310Z,0.00
2019-03-22T02:28:04.078Z,0.00
2019-03-22T02:28:58.278Z,0.00
2019-03-22T02:29:58.292Z,0.00
2019-03-22T02:30:58.289Z,0.00
2019-03-22T02:31:58.268Z,0.00
2019-03-22T02:32:58.251Z,0.00
2019-03-22T02:33:58.235Z,0.00
2019-03-22T02:34:58.229Z,0.00
2019-03-22T02:35:58.229Z,0.00
2019-03-22T02:36:58.193Z,0.00
2019-03-22T02:37:58.190Z,0.00
2019-03-22T02:38:58.179Z,0.00
2019-03-22T02:39:58.166Z,0.00
2019-03-22T02:40:58.197Z,0.00
2019-03-22T02:41:58.151Z,0.00
2019-03-22T02:42:58.134Z,0.00
2019-03-22T02:43:58.124Z,0.00
2019-03-22T02:44:58.165Z,0.00
2019-03-22T02:45:58.117Z,0.00
2019-03-22T02:46:58.087Z,0.00
2019-03-22T02:47:58.075Z,0.00
2019-03-22T02:48:58.077Z,0.00
2019-03-22T02:49:58.054Z,0.00
2019-03-22T02:50:58.052Z,0.00
2019-03-22T02:51:58.022Z,0.00
2019-03-22T02:52:58.015Z,0.00
2019-03-22T02:53:58.014Z,0.00
2019-03-22T02:54:58.003Z,0.00
2019-03-22T02:55:58.094Z,0.00
2019-03-22T02:56:58.028Z,0.00
2019-03-22T02:57:57.971Z,0.00
2019-03-22T02:58:59.452Z,0.00
2019-03-22T02:59:57.954Z,0.00
2019-03-22T03:00:57.985Z,0.00
2019-03-22T03:01:57.923Z,0.00
2019-03-22T03:02:57.923Z,0.00
2019-03-22T03:03:57.920Z,0.00
2019-03-22T03:06:07.129Z,0.00
2019-03-22T03:07:08.101Z,0.00
2019-03-22T03:08:08.072Z,0.00
2019-03-22T03:09:08.049Z,0.00
2019-03-22T03:10:08.031Z,0.00
2019-03-22T03:11:08.057Z,0.00
2019-03-22T03:12:08.017Z,0.00
2019-03-22T03:13:08.001Z,0.00
2019-03-22T03:14:07.995Z,0.00
2019-03-22T03:15:07.986Z,0.00
2019-03-22T03:16:08.002Z,0.00
2019-03-22T03:17:07.958Z,0.00
2019-03-22T03:18:07.947Z,0.00
2019-03-22T03:19:07.950Z,0.00
2019-03-22T03:20:07.935Z,0.00
2019-03-22T03:21:07.942Z,0.00
2019-03-22T03:22:07.902Z,0.00
2019-03-22T03:23:07.918Z,0.00
2019-03-22T03:24:07.872Z,0.00
2019-03-22T03:25:07.877Z,0.00
2019-03-22T03:26:07.872Z,0.00
2019-03-22T03:27:07.846Z,0.00
2019-03-22T03:28:07.837Z,0.00
2019-03-22T03:29:07.833Z,0.00
2019-03-22T03:30:07.830Z,0.00
2019-03-22T03:31:07.848Z,0.00
2019-03-22T03:32:07.797Z,0.00
2019-03-22T03:33:07.791Z,0.00
2019-03-22T03:34:07.831Z,0.00
2019-03-22T03:35:07.753Z,0.00
2019-03-22T03:36:07.773Z,0.00
2019-03-22T03:37:07.735Z,0.00
2019-03-22T03:38:07.731Z,0.00
2019-03-22T03:39:07.733Z,0.00
2019-03-22T03:40:07.735Z,0.00
2019-03-22T03:41:07.705Z,0.00
2019-03-22T03:42:07.684Z,0.00
2019-03-22T03:43:07.667Z,0.00
2019-03-22T03:44:07.658Z,0.00
2019-03-22T03:45:07.668Z,0.00
2019-03-22T03:46:07.686Z,0.00
2019-03-22T03:47:10.300Z,0.00
2019-03-22T03:48:07.618Z,0.00
2019-03-22T03:49:07.624Z,0.00
2019-03-22T03:50:07.599Z,0.00
2019-03-22T03:51:07.613Z,0.00
2019-03-22T03:52:07.583Z,0.00
2019-03-22T03:53:07.591Z,0.00
2019-03-22T03:54:07.557Z,0.00
2019-03-22T03:55:07.551Z,0.00
2019-03-22T03:56:07.554Z,0.00
2019-03-22T03:57:07.517Z,0.00
2019-03-22T03:58:07.561Z,0.00
2019-03-22T03:59:07.513Z,0.00
2019-03-22T04:00:07.496Z,0.00
2019-03-22T04:01:07.496Z,0.00
2019-03-22T04:02:07.483Z,0.00
2019-03-22T04:03:07.464Z,0.00
2019-03-22T04:04:07.469Z,0.00
2019-03-22T04:05:07.505Z,0.00
2019-03-22T04:06:07.449Z,0.00
2019-03-22T04:07:07.439Z,0.00
2019-03-22T04:08:07.394Z,0.00
2019-03-22T04:09:07.397Z,0.00
2019-03-22T04:10:07.426Z,0.00
2019-03-22T04:11:07.421Z,0.00
2019-03-22T04:12:07.366Z,0.00
2019-03-22T04:13:07.356Z,0.00
2019-03-22T04:14:07.370Z,0.00
2019-03-22T04:15:07.338Z,0.00
2019-03-22T04:16:07.352Z,0.00
2019-03-22T04:17:07.330Z,0.00
2019-03-22T04:18:07.310Z,0.00
2019-03-22T04:19:07.280Z,0.00
2019-03-22T04:20:07.270Z,0.00
2019-03-22T04:21:07.282Z,0.00
2019-03-22T04:22:07.250Z,0.00
2019-03-22T04:23:07.239Z,0.00
2019-03-22T04:24:07.238Z,0.00
2019-03-22T04:25:07.244Z,0.00
2019-03-22T04:26:07.228Z,0.00
2019-03-22T04:27:07.196Z,0.00
2019-03-22T04:28:07.190Z,0.00
2019-03-22T04:29:08.499Z,0.00
2019-03-22T04:30:07.173Z,0.00
2019-03-22T04:31:07.172Z,0.00
2019-03-22T04:32:07.144Z,0.00
2019-03-22T04:33:07.350Z,0.00
2019-03-22T04:34:07.122Z,0.00
2019-03-22T04:35:07.125Z,0.00
2019-03-22T04:36:07.110Z,0.00
2019-03-22T04:37:07.092Z,0.00
2019-03-22T04:38:07.089Z,0.00
2019-03-22T04:39:07.066Z,0.00
2019-03-22T04:40:07.068Z,0.00
2019-03-22T04:41:07.067Z,0.00
2019-03-22T04:42:07.043Z,0.00
2019-03-22T04:43:07.015Z,0.00
2019-03-22T04:44:07.012Z,0.00
2019-03-22T04:45:07.013Z,0.00
2019-03-22T04:46:06.988Z,0.00
2019-03-22T04:47:06.998Z,0.00
2019-03-22T04:48:06.981Z,0.00
2019-03-22T04:49:06.960Z,0.00
2019-03-22T04:50:06.944Z,0.00
2019-03-22T04:51:06.950Z,0.00
2019-03-22T04:52:06.952Z,0.00
2019-03-22T04:53:06.914Z,0.00
2019-03-22T04:54:06.919Z,0.00
2019-03-22T04:55:06.895Z,0.00
2019-03-22T04:56:06.888Z,0.00
2019-03-22T04:57:06.892Z,0.00
2019-03-22T04:58:06.865Z,0.00
2019-03-22T04:59:17.916Z,0.00
2019-03-22T05:00:06.869Z,0.00
2019-03-22T05:01:06.823Z,0.00
2019-03-22T05:02:06.828Z,0.00
2019-03-22T05:03:06.811Z,0.00
2019-03-22T05:04:06.794Z,0.00
2019-03-22T05:05:06.782Z,0.00
2019-03-22T05:07:15.996Z,0.00
2019-03-22T05:08:16.966Z,0.00
2019-03-22T05:09:16.982Z,0.00
2019-03-22T05:10:16.945Z,0.00
2019-03-22T05:11:16.969Z,0.00
2019-03-22T05:12:16.948Z,0.00
2019-03-22T05:13:16.917Z,0.00
2019-03-22T05:14:16.915Z,0.00
2019-03-22T05:15:16.889Z,0.00
2019-03-22T05:16:16.876Z,0.00
2019-03-22T05:17:16.900Z,0.00
2019-03-22T05:18:16.868Z,0.00
2019-03-22T05:19:16.878Z,5.62
2019-03-22T05:20:16.842Z,5.62
2019-03-22T05:21:16.836Z,5.62
2019-03-22T05:22:16.838Z,5.62
2019-03-22T05:23:16.813Z,5.62
2019-03-22T05:24:18.324Z,5.62
2019-03-22T05:25:16.780Z,5.62
2019-03-22T05:26:16.769Z,11.25
2019-03-22T05:27:16.787Z,11.25
2019-03-22T05:28:16.762Z,11.25
2019-03-22T05:29:16.751Z,11.25
2019-03-22T05:30:16.738Z,11.25
2019-03-22T05:31:16.734Z,16.88
2019-03-22T05:32:16.755Z,16.88
2019-03-22T05:33:16.717Z,16.88
2019-03-22T05:34:16.720Z,22.50
2019-03-22T05:35:16.676Z,22.50
2019-03-22T05:36:16.680Z,22.50
2019-03-22T05:37:16.713Z,28.12
2019-03-22T05:38:16.642Z,28.12
2019-03-22T05:39:16.634Z,28.12
2019-03-22T05:40:16.643Z,33.75
2019-03-22T05:41:16.622Z,33.75
2019-03-22T05:42:16.633Z,39.38
2019-03-22T05:43:16.601Z,39.38
2019-03-22T05:44:16.597Z,45.00
2019-03-22T05:45:16.600Z,45.00
2019-03-22T05:46:16.572Z,50.62
2019-03-22T05:47:16.583Z,56.25
2019-03-22T05:48:16.557Z,56.25
2019-03-22T05:49:16.524Z,56.25
2019-03-22T05:50:16.514Z,56.25
2019-03-22T05:51:16.520Z,61.88
2019-03-22T05:52:16.518Z,67.50
2019-03-22T05:53:16.478Z,67.50
2019-03-22T05:54:16.463Z,73.12
2019-03-22T05:55:16.462Z,78.75
2019-03-22T05:56:16.449Z,84.38
2019-03-22T05:57:16.472Z,84.38
2019-03-22T05:58:16.434Z,84.38
2019-03-22T05:59:16.417Z,90.00
2019-03-22T06:00:16.427Z,90.00
2019-03-22T06:01:16.396Z,95.62
2019-03-22T06:02:16.406Z,101.25
2019-03-22T06:03:16.380Z,101.25
2019-03-22T06:04:16.364Z,112.50
2019-03-22T06:05:16.366Z,118.12
2019-03-22T06:06:16.355Z,140.62
2019-03-22T06:07:16.380Z,157.50
2019-03-22T06:08:16.324Z,163.12
2019-03-22T06:09:16.334Z,163.12
2019-03-22T06:10:19.230Z,168.75
2019-03-22T06:11:16.343Z,174.38
2019-03-22T06:12:16.295Z,180.00
2019-03-22T06:13:16.330Z,196.88
2019-03-22T06:14:16.278Z,180.00
2019-03-22T06:15:16.247Z,185.62
2019-03-22T06:16:16.252Z,185.62
2019-03-22T06:17:16.226Z,196.88
2019-03-22T06:18:16.228Z,219.38
2019-03-22T06:19:16.209Z,230.62
2019-03-22T06:20:16.186Z,241.88
2019-03-22T06:21:16.192Z,236.25
2019-03-22T06:22:16.174Z,253.12
2019-03-22T06:23:16.175Z,258.75
2019-03-22T06:24:16.184Z,264.38
2019-03-22T06:25:16.173Z,270.00
2019-03-22T06:26:16.165Z,264.38
2019-03-22T06:27:16.122Z,253.12
2019-03-22T06:28:16.122Z,253.12
2019-03-22T06:29:16.103Z,264.38
2019-03-22T06:30:16.078Z,264.38
2019-03-22T06:31:16.081Z,292.50
2019-03-22T06:32:16.066Z,309.38
2019-03-22T06:33:16.088Z,275.62
2019-03-22T06:34:16.041Z,247.50
2019-03-22T06:35:16.030Z,253.12
2019-03-22T06:36:16.075Z,253.12
2019-03-22T06:37:16.041Z,253.12
2019-03-22T06:38:16.022Z,247.50
2019-03-22T06:39:15.997Z,241.88
2019-03-22T06:40:15.985Z,241.88
2019-03-22T06:41:15.977Z,258.75
2019-03-22T06:42:15.957Z,275.62
2019-03-22T06:43:15.983Z,286.88
2019-03-22T06:44:15.928Z,320.62
2019-03-22T06:45:15.981Z,315.00
2019-03-22T06:46:15.921Z,320.62
2019-03-22T06:47:15.952Z,326.25
2019-03-22T06:48:15.910Z,315.00
2019-03-22T06:49:15.875Z,320.62
2019-03-22T06:50:15.877Z,320.62
2019-03-22T06:51:15.865Z,348.75
2019-03-22T06:52:15.835Z,376.88
2019-03-22T06:53:15.879Z,360.00
2019-03-22T06:54:16.100Z,399.38
2019-03-22T06:55:15.909Z,461.25
2019-03-22T06:56:15.802Z,450.00
2019-03-22T06:57:15.799Z,444.38
2019-03-22T06:58:15.811Z,528.75
2019-03-22T06:59:15.762Z,579.38
2019-03-22T07:00:15.765Z,607.50
2019-03-22T07:01:15.759Z,551.25
2019-03-22T07:02:15.737Z,489.38
2019-03-22T07:03:15.770Z,528.75
2019-03-22T07:04:15.740Z,579.38
2019-03-22T07:05:15.955Z,579.38
2019-03-22T07:06:15.689Z,506.25
2019-03-22T07:08:36.478Z,551.25
2019-03-22T07:09:37.602Z,585.00
2019-03-22T07:10:37.472Z,652.50
2019-03-22T07:11:37.427Z,607.50
2019-03-22T07:12:37.417Z,646.88
2019-03-22T07:13:37.703Z,697.50
2019-03-22T07:14:37.368Z,731.25
2019-03-22T07:15:37.381Z,691.88
2019-03-22T07:16:37.376Z,843.75
2019-03-22T07:17:37.334Z,1006.88
2019-03-22T07:18:37.417Z,1113.75
2019-03-22T07:19:37.342Z,1040.62
2019-03-22T07:20:37.303Z,1074.38
2019-03-22T07:21:37.419Z,1074.38
2019-03-22T07:22:37.271Z,1068.75
2019-03-22T07:23:37.788Z,1158.75
2019-03-22T07:24:37.271Z,1136.25
2019-03-22T07:25:37.245Z,1080.00
2019-03-22T07:26:37.232Z,984.38
2019-03-22T07:27:37.284Z,990.00
2019-03-22T07:28:37.223Z,1012.50
2019-03-22T07:29:37.240Z,984.38
2019-03-22T07:30:37.213Z,978.75
2019-03-22T07:31:37.231Z,1023.75
2019-03-22T07:32:37.163Z,1074.38
2019-03-22T07:33:37.180Z,1074.38
2019-03-22T07:34:37.199Z,1057.50
2019-03-22T07:35:37.174Z,1068.75
2019-03-22T07:36:37.145Z,1102.50
2019-03-22T07:37:37.129Z,1085.62
2019-03-22T07:38:37.112Z,1091.25
2019-03-22T07:39:37.094Z,978.75
2019-03-22T07:40:37.140Z,1012.50
2019-03-22T07:41:37.075Z,1063.12
2019-03-22T07:42:37.079Z,1147.50
2019-03-22T07:43:37.147Z,1282.50
2019-03-22T07:44:37.031Z,1175.62
2019-03-22T07:45:37.098Z,1434.38
2019-03-22T07:46:37.053Z,1597.50
2019-03-22T07:47:37.002Z,1676.25
2019-03-22T07:48:37.019Z,1704.38
2019-03-22T07:49:36.989Z,1760.62
2019-03-22T07:50:36.955Z,1923.75
2019-03-22T07:51:36.945Z,2126.25
2019-03-22T07:52:36.953Z,2041.88
2019-03-22T07:53:36.948Z,2047.50
2019-03-22T07:54:36.921Z,2030.62
2019-03-22T07:55:36.911Z,1726.88
2019-03-22T07:56:36.897Z,1833.75
2019-03-22T07:57:36.878Z,1777.50
2019-03-22T07:58:36.895Z,1895.62
2019-03-22T07:59:36.856Z,1946.25
2019-03-22T08:00:36.854Z,1957.50
2019-03-22T08:01:36.843Z,1783.12
2019-03-22T08:02:36.830Z,1980.00
2019-03-22T08:03:36.827Z,1890.00
2019-03-22T08:04:36.816Z,1726.88
2019-03-22T08:05:36.805Z,1906.88
2019-03-22T08:06:36.779Z,2002.50
2019-03-22T08:07:36.773Z,2137.50
2019-03-22T08:08:36.774Z,2328.75
2019-03-22T08:09:36.876Z,2446.88
2019-03-22T08:10:36.778Z,2480.62
2019-03-22T08:11:36.944Z,2525.62
2019-03-22T08:12:36.738Z,2570.62
2019-03-22T08:13:37.213Z,2587.50
2019-03-22T08:14:37.656Z,2559.38
2019-03-22T08:15:37.653Z,2480.62
2019-03-22T08:16:36.721Z,2446.88
2019-03-22T08:17:36.726Z,2430.00
2019-03-22T08:18:37.752Z,2480.62
2019-03-22T08:19:36.766Z,2475.00
2019-03-22T08:20:38.759Z,2531.25
2019-03-22T08:21:36.654Z,2615.62
2019-03-22T08:22:36.629Z,2621.25
2019-03-22T08:23:36.628Z,2576.25
2019-03-22T08:24:36.570Z,2536.88
2019-03-22T08:25:36.592Z,2469.38
2019-03-22T08:26:36.584Z,2475.00
2019-03-22T08:27:36.561Z,2486.25
2019-03-22T08:28:37.448Z,2497.50
2019-03-22T08:29:36.517Z,2525.62
2019-03-22T08:30:42.921Z,2570.62
2019-03-22T08:31:36.508Z,2576.25
2019-03-22T08:32:36.543Z,2565.00
2019-03-22T08:33:36.500Z,2604.38
2019-03-22T08:34:36.464Z,2655.00
2019-03-22T08:35:36.472Z,2677.50
2019-03-22T08:36:36.447Z,2683.12
2019-03-22T08:37:36.594Z,2694.38
2019-03-22T08:38:36.590Z,2677.50
2019-03-22T08:39:36.427Z,2671.88
2019-03-22T08:40:36.399Z,2671.88
2019-03-22T08:41:36.398Z,2722.50
2019-03-22T08:42:36.374Z,2812.50
2019-03-22T08:43:36.409Z,2851.88
2019-03-22T08:44:36.356Z,2863.12
2019-03-22T08:45:36.356Z,2790.00
2019-03-22T08:46:36.496Z,2711.25
2019-03-22T08:47:36.342Z,2705.62
2019-03-22T08:48:36.333Z,2705.62
2019-03-22T08:49:36.397Z,2716.88
2019-03-22T08:50:36.293Z,2739.38
2019-03-22T08:51:36.304Z,2767.50
2019-03-22T08:52:36.417Z,2767.50
2019-03-22T08:53:36.738Z,2739.38
2019-03-22T08:54:38.297Z,2643.75
2019-03-22T08:55:38.308Z,2520.00
2019-03-22T08:56:36.440Z,2542.50
2019-03-22T08:57:36.472Z,2604.38
2019-03-22T08:58:37.014Z,2705.62
2019-03-22T08:59:37.667Z,2778.75
2019-03-22T09:00:39.581Z,2823.75
2019-03-22T09:01:36.320Z,2756.25
2019-03-22T09:02:36.311Z,2756.25
2019-03-22T09:03:37.137Z,2778.75
2019-03-22T09:04:36.577Z,2700.00
2019-03-22T09:05:36.307Z,2739.38
2019-03-22T09:06:36.567Z,2896.88
2019-03-22T09:07:36.297Z,2930.62
2019-03-22T09:09:45.857Z,2857.50
2019-03-22T09:10:46.574Z,2851.88
2019-03-22T09:11:46.413Z,2891.25
2019-03-22T09:12:47.078Z,2919.38
2019-03-22T09:13:46.520Z,2975.62
2019-03-22T09:14:46.491Z,3020.62
2019-03-22T09:15:46.482Z,3043.12
2019-03-22T09:16:48.007Z,3015.00
2019-03-22T09:17:46.420Z,2941.88
2019-03-22T09:18:49.857Z,2891.25
2019-03-22T09:19:46.251Z,2863.12
2019-03-22T09:20:46.293Z,2891.25
2019-03-22T09:21:46.189Z,2880.00
2019-03-22T09:22:46.328Z,2908.12
2019-03-22T09:23:46.506Z,2857.50
2019-03-22T09:24:46.160Z,2868.75
2019-03-22T09:25:46.176Z,2919.38
2019-03-22T09:26:47.885Z,2975.62
2019-03-22T09:27:46.225Z,2947.50
2019-03-22T09:28:46.229Z,2891.25
2019-03-22T09:29:47.404Z,2851.88
2019-03-22T09:30:46.113Z,2801.25
2019-03-22T09:31:46.136Z,2812.50
2019-03-22T09:32:46.077Z,2936.25
2019-03-22T09:33:46.085Z,3020.62
2019-03-22T09:34:46.698Z,3003.75
2019-03-22T09:35:46.343Z,2947.50
2019-03-22T09:36:46.121Z,2902.50
2019-03-22T09:37:46.070Z,2880.00
2019-03-22T09:38:47.117Z,2857.50
2019-03-22T09:39:46.016Z,2846.25
2019-03-22T09:40:47.082Z,2868.75
2019-03-22T09:41:46.013Z,2925.00
2019-03-22T09:42:45.981Z,3037.50
2019-03-22T09:43:46.310Z,3195.00
2019-03-22T09:44:46.014Z,3178.12
2019-03-22T09:45:45.973Z,2992.50
2019-03-22T09:46:45.929Z,2846.25
2019-03-22T09:47:45.945Z,2851.88
2019-03-22T09:48:46.018Z,2936.25
2019-03-22T09:49:46.640Z,3093.75
2019-03-22T09:50:45.912Z,3223.12
2019-03-22T09:51:45.869Z,3245.62
2019-03-22T09:52:45.998Z,3189.38
2019-03-22T09:53:46.546Z,3105.00
2019-03-22T09:54:45.845Z,3065.62
2019-03-22T09:55:46.062Z,2986.88
2019-03-22T09:56:47.411Z,3031.88
2019-03-22T09:57:45.846Z,3093.75
2019-03-22T09:58:45.918Z,3172.50
2019-03-22T09:59:46.641Z,3195.00
2019-03-22T10:00:48.569Z,3172.50
2019-03-22T10:01:45.817Z,3071.25
2019-03-22T10:02:45.830Z,3020.62
2019-03-22T10:03:45.800Z,2986.88
2019-03-22T10:04:45.774Z,2986.88
2019-03-22T10:05:45.847Z,2986.88
2019-03-22T10:06:45.747Z,3026.25
2019-03-22T10:07:45.732Z,3099.38
2019-03-22T10:08:45.730Z,3121.88
2019-03-22T10:09:45.703Z,3110.62
2019-03-22T10:10:45.768Z,3071.25
2019-03-22T10:11:45.714Z,3088.12
2019-03-22T10:12:45.705Z,3088.12
2019-03-22T10:13:48.251Z,3099.38
2019-03-22T10:14:45.686Z,3093.75
2019-03-22T10:15:45.670Z,3138.75
2019-03-22T10:16:47.665Z,3138.75
2019-03-22T10:17:45.593Z,3116.25
2019-03-22T10:18:46.217Z,3082.50
2019-03-22T10:19:46.624Z,3037.50
2019-03-22T10:20:45.551Z,3020.62
2019-03-22T10:21:45.742Z,3009.38
2019-03-22T10:23:54.735Z,3189.38
2019-03-22T10:24:55.742Z,3217.50
2019-03-22T10:25:55.909Z,3116.25
2019-03-22T10:26:55.827Z,3043.12
2019-03-22T10:27:55.775Z,3003.75
2019-03-22T10:28:55.678Z,2947.50
2019-03-22T10:29:55.800Z,2981.25
2019-03-22T10:30:55.819Z,3054.38
2019-03-22T10:31:55.942Z,3060.00
2019-03-22T10:32:55.720Z,3138.75
2019-03-22T10:33:55.635Z,3144.38
2019-03-22T10:34:55.668Z,3105.00
2019-03-22T10:35:55.690Z,3076.88
2019-03-22T10:36:55.650Z,3071.25
2019-03-22T10:38:00.336Z,3116.25
2019-03-22T10:38:55.979Z,3076.88
2019-03-22T10:39:55.620Z,3088.12
2019-03-22T10:40:55.709Z,3082.50
2019-03-22T10:41:55.603Z,3048.75
2019-03-22T10:42:55.562Z,2998.12
2019-03-22T10:43:55.525Z,2964.38
2019-03-22T10:44:55.613Z,2953.12
2019-03-22T10:45:55.539Z,2998.12
2019-03-22T10:46:55.528Z,3060.00
2019-03-22T10:47:55.557Z,3065.62
2019-03-22T10:48:55.536Z,3076.88
2019-03-22T10:49:55.527Z,3060.00
2019-03-22T10:50:55.447Z,3043.12
2019-03-22T10:51:57.395Z,2986.88
2019-03-22T10:52:55.453Z,2936.25
2019-03-22T10:53:55.461Z,2885.62
2019-03-22T10:54:55.542Z,2851.88
2019-03-22T10:55:55.577Z,2863.12
2019-03-22T10:56:55.376Z,2863.12
2019-03-22T10:57:55.673Z,2835.00
2019-03-22T10:58:55.384Z,2851.88
2019-03-22T10:59:55.404Z,2913.75
2019-03-22T11:00:55.348Z,2891.25
2019-03-22T11:02:03.369Z,2851.88
2019-03-22T11:02:55.310Z,2840.62
2019-03-22T11:03:55.368Z,2801.25
2019-03-22T11:04:55.318Z,2688.75
2019-03-22T11:05:55.334Z,2531.25
2019-03-22T11:06:55.272Z,2362.50
2019-03-22T11:07:55.265Z,2340.00
2019-03-22T11:08:55.252Z,2458.12
2019-03-22T11:09:55.285Z,2632.50
2019-03-22T11:10:55.232Z,2835.00
2019-03-22T11:11:55.210Z,2936.25
2019-03-22T11:12:55.210Z,2925.00
2019-03-22T11:13:55.201Z,2818.12
2019-03-22T11:14:55.238Z,2829.38
2019-03-22T11:15:55.187Z,2868.75
2019-03-22T11:16:55.193Z,2795.62
2019-03-22T11:17:55.206Z,2795.62
2019-03-22T11:18:55.165Z,2739.38
2019-03-22T11:19:57.399Z,2722.50
2019-03-22T11:21:04.469Z,2739.38
2019-03-22T11:21:55.108Z,2778.75
2019-03-22T11:22:55.102Z,2733.75
2019-03-22T11:23:55.129Z,2694.38
2019-03-22T11:24:55.089Z,2745.00
2019-03-22T11:26:03.800Z,2790.00
2019-03-22T11:26:55.094Z,2801.25
2019-03-22T11:27:55.057Z,2733.75
2019-03-22T11:28:55.055Z,2688.75
2019-03-22T11:29:55.052Z,2716.88
2019-03-22T11:31:01.145Z,2784.38
2019-03-22T11:31:54.993Z,2823.75
2019-03-22T11:32:54.980Z,2778.75
2019-03-22T11:33:54.979Z,2739.38
2019-03-22T11:34:54.987Z,2700.00
2019-03-22T11:35:54.962Z,2694.38
2019-03-22T11:36:54.954Z,2666.25
2019-03-22T11:37:55.034Z,2688.75
2019-03-22T11:38:54.914Z,2733.75
2019-03-22T11:39:54.919Z,2716.88
2019-03-22T11:40:54.890Z,2722.50
2019-03-22T11:41:55.480Z,2722.50
2019-03-22T11:42:54.882Z,2722.50
2019-03-22T11:43:54.868Z,2716.88
2019-03-22T11:44:54.865Z,2773.12
2019-03-22T11:45:54.890Z,2756.25
2019-03-22T11:46:54.827Z,2683.12
2019-03-22T11:47:54.821Z,2671.88
2019-03-22T11:48:54.799Z,2649.38
2019-03-22T11:49:54.835Z,2621.25
2019-03-22T11:50:54.785Z,2666.25
2019-03-22T11:51:54.770Z,2694.38
2019-03-22T11:52:54.773Z,2649.38
2019-03-22T11:53:54.752Z,2581.88
2019-03-22T11:54:54.777Z,2559.38
2019-03-22T11:55:54.723Z,2587.50
2019-03-22T11:56:54.719Z,2621.25
2019-03-22T11:57:54.708Z,2694.38
2019-03-22T11:58:54.699Z,2739.38
2019-03-22T11:59:54.708Z,2716.88
2019-03-22T12:00:54.711Z,2638.12
2019-03-22T12:01:54.658Z,2503.12
2019-03-22T12:02:54.678Z,2536.88
2019-03-22T12:03:54.642Z,2587.50
2019-03-22T12:04:54.650Z,2570.62
2019-03-22T12:05:54.645Z,2593.12
2019-03-22T12:06:54.629Z,2565.00
2019-03-22T12:07:54.608Z,2531.25
2019-03-22T12:08:54.602Z,2531.25
2019-03-22T12:09:54.620Z,2497.50
2019-03-22T12:10:54.630Z,2458.12
2019-03-22T12:11:54.555Z,2486.25
2019-03-22T12:12:54.561Z,2536.88
2019-03-22T12:13:54.536Z,2593.12
2019-03-22T12:14:54.523Z,2615.62
2019-03-22T12:15:54.539Z,2520.00
2019-03-22T12:16:56.633Z,2458.12
2019-03-22T12:17:54.491Z,2424.38
2019-03-22T12:18:54.481Z,2430.00
2019-03-22T12:19:54.471Z,2446.88
2019-03-22T12:20:56.544Z,2531.25
2019-03-22T12:21:54.446Z,2598.75
2019-03-22T12:22:54.442Z,2593.12
2019-03-22T12:25:03.677Z,2396.25
2019-03-22T12:26:06.437Z,2407.50
2019-03-22T12:27:04.584Z,2475.00
2019-03-22T12:28:04.582Z,2491.88
2019-03-22T12:29:04.574Z,2469.38
2019-03-22T12:30:04.640Z,2413.12
2019-03-22T12:31:04.558Z,2385.00
2019-03-22T12:32:04.532Z,2401.88
2019-03-22T12:33:04.519Z,2452.50
2019-03-22T12:34:04.506Z,2503.12
2019-03-22T12:35:04.497Z,2469.38
2019-03-22T12:36:04.514Z,2379.38
2019-03-22T12:37:04.473Z,2379.38
2019-03-22T12:38:04.470Z,2373.75
2019-03-22T12:39:04.466Z,2317.50
2019-03-22T12:40:04.446Z,2250.00
2019-03-22T12:41:04.464Z,2233.12
2019-03-22T12:42:04.424Z,2221.88
2019-03-22T12:43:04.414Z,2182.50
2019-03-22T12:44:04.402Z,2137.50
2019-03-22T12:45:04.398Z,2171.25
2019-03-22T12:46:04.442Z,2266.88
2019-03-22T12:47:04.371Z,2396.25
2019-03-22T12:48:04.371Z,2413.12